Terminal Aerodrome Forecast
Issued by NWS Charleston, WV

Current Version | Previous Version | Graphics & Text | Print | Product List | Glossary On
Versions: 1 2 3 4 5 6 7 8 9 10 11 12 13 14 15 16 17 18 19 20 21 22 23
000
FTUS41 KRLX 311400 AAA
TAFBKW
TAF AMD
KBKW 311451Z 3115/0112 22007KT P6SM BKN070 OVC100
     FM311900 24006KT P6SM TSRA BKN035CB
     FM312100 00000KT 6SM -SHRA OVC030
     FM010100 21004KT 4SM SHRA OVC045
     FM010300 24006KT 4SM BR OVC020=

USA.gov is the U.S. government's official web portal to all federal, state and local government web resources and services.